sensor_id;sensor_type;location;lat;lon;timestamp;P1;durP1;ratioP1;P2;durP2;ratioP2
8466;SDS011;4270;48.148;11.648;2023-11-19T00:00:14;2.73;;;1.43;;
8466;SDS011;4270;48.148;11.648;2023-11-19T00:02:40;2.57;;;1.87;;
8466;SDS011;4270;48.148;11.648;2023-11-19T00:05:05;2.83;;;2.40;;
8466;SDS011;4270;48.148;11.648;2023-11-19T00:07:34;3.07;;;2.07;;
8466;SDS011;4270;48.148;11.648;2023-11-19T00:10:00;3.40;;;1.90;;
8466;SDS011;4270;48.148;11.648;2023-11-19T00:12:34;2.93;;;2.23;;
8466;SDS011;4270;48.148;11.648;2023-11-19T00:14:59;2.80;;;1.93;;
8466;SDS011;4270;48.148;11.648;2023-11-19T00:17:24;4.90;;;2.10;;
8466;SDS011;4270;48.148;11.648;2023-11-19T00:19:50;2.90;;;1.73;;
8466;SDS011;4270;48.148;11.648;2023-11-19T00:22:16;4.37;;;2.20;;
8466;SDS011;4270;48.148;11.648;2023-11-19T00:24:41;4.00;;;2.00;;
8466;SDS011;4270;48.148;11.648;2023-11-19T00:27:06;3.10;;;2.20;;
8466;SDS011;4270;48.148;11.648;2023-11-19T00:29:32;2.50;;;1.90;;
8466;SDS011;4270;48.148;11.648;2023-11-19T00:31:58;2.80;;;1.93;;
8466;SDS011;4270;48.148;11.648;2023-11-19T00:34:23;3.60;;;2.13;;
8466;SDS011;4270;48.148;11.648;2023-11-19T00:36:48;3.00;;;1.80;;
8466;SDS011;4270;48.148;11.648;2023-11-19T00:39:14;2.23;;;1.80;;
8466;SDS011;4270;48.148;11.648;2023-11-19T00:41:40;3.73;;;2.73;;
8466;SDS011;4270;48.148;11.648;2023-11-19T00:44:05;3.13;;;2.50;;
8466;SDS011;4270;48.148;11.648;2023-11-19T00:46:30;3.00;;;1.93;;
8466;SDS011;4270;48.148;11.648;2023-11-19T00:48:57;3.50;;;2.47;;
8466;SDS011;4270;48.148;11.648;2023-11-19T00:51:24;3.00;;;2.03;;
8466;SDS011;4270;48.148;11.648;2023-11-19T00:53:50;3.93;;;2.60;;
8466;SDS011;4270;48.148;11.648;2023-11-19T00:56:15;2.83;;;2.07;;
8466;SDS011;4270;48.148;11.648;2023-11-19T00:58:42;3.97;;;2.53;;
8466;SDS011;4270;48.148;11.648;2023-11-19T01:01:07;4.57;;;2.93;;
8466;SDS011;4270;48.148;11.648;2023-11-19T01:03:33;3.40;;;2.67;;
8466;SDS011;4270;48.148;11.648;2023-11-19T01:05:58;3.60;;;2.77;;
8466;SDS011;4270;48.148;11.648;2023-11-19T01:08:24;4.70;;;2.73;;
8466;SDS011;4270;48.148;11.648;2023-11-19T01:10:50;3.23;;;2.50;;
8466;SDS011;4270;48.148;11.648;2023-11-19T01:13:15;3.00;;;2.33;;
8466;SDS011;4270;48.148;11.648;2023-11-19T01:15:40;3.47;;;2.67;;
8466;SDS011;4270;48.148;11.648;2023-11-19T01:18:06;4.53;;;2.60;;
8466;SDS011;4270;48.148;11.648;2023-11-19T01:20:34;3.50;;;2.30;;
8466;SDS011;4270;48.148;11.648;2023-11-19T01:22:59;3.40;;;2.13;;
8466;SDS011;4270;48.148;11.648;2023-11-19T01:25:25;4.27;;;2.30;;
8466;SDS011;4270;48.148;11.648;2023-11-19T01:27:50;3.37;;;1.93;;
8466;SDS011;4270;48.148;11.648;2023-11-19T01:30:15;3.37;;;2.10;;
8466;SDS011;4270;48.148;11.648;2023-11-19T01:32:40;3.80;;;1.97;;
8466;SDS011;4270;48.148;11.648;2023-11-19T01:35:06;3.53;;;2.20;;
8466;SDS011;4270;48.148;11.648;2023-11-19T01:37:31;2.93;;;1.93;;
8466;SDS011;4270;48.148;11.648;2023-11-19T01:39:57;3.23;;;2.27;;
8466;SDS011;4270;48.148;11.648;2023-11-19T01:42:22;3.50;;;2.30;;
8466;SDS011;4270;48.148;11.648;2023-11-19T01:44:59;3.00;;;2.33;;
8466;SDS011;4270;48.148;11.648;2023-11-19T01:47:28;2.97;;;2.03;;
8466;SDS011;4270;48.148;11.648;2023-11-19T01:49:53;3.30;;;2.20;;
8466;SDS011;4270;48.148;11.648;2023-11-19T01:52:19;2.60;;;1.83;;
8466;SDS011;4270;48.148;11.648;2023-11-19T01:54:45;2.90;;;2.10;;
8466;SDS011;4270;48.148;11.648;2023-11-19T01:57:10;3.40;;;2.20;;
8466;SDS011;4270;48.148;11.648;2023-11-19T01:59:36;2.80;;;2.00;;
8466;SDS011;4270;48.148;11.648;2023-11-19T02:02:01;2.30;;;1.90;;
8466;SDS011;4270;48.148;11.648;2023-11-19T02:04:26;3.10;;;2.17;;
8466;SDS011;4270;48.148;11.648;2023-11-19T02:06:52;3.43;;;2.23;;
8466;SDS011;4270;48.148;11.648;2023-11-19T02:09:19;3.13;;;1.80;;
8466;SDS011;4270;48.148;11.648;2023-11-19T02:11:44;2.63;;;1.87;;
8466;SDS011;4270;48.148;11.648;2023-11-19T02:14:10;2.70;;;1.67;;
8466;SDS011;4270;48.148;11.648;2023-11-19T02:16:36;2.70;;;1.90;;
8466;SDS011;4270;48.148;11.648;2023-11-19T02:19:01;3.00;;;2.03;;
8466;SDS011;4270;48.148;11.648;2023-11-19T02:21:26;2.40;;;1.87;;
8466;SDS011;4270;48.148;11.648;2023-11-19T02:23:51;3.03;;;1.80;;
8466;SDS011;4270;48.148;11.648;2023-11-19T02:28:43;2.37;;;1.50;;
8466;SDS011;4270;48.148;11.648;2023-11-19T02:31:08;2.40;;;1.63;;
8466;SDS011;4270;48.148;11.648;2023-11-19T02:33:35;2.43;;;1.97;;
8466;SDS011;4270;48.148;11.648;2023-11-19T02:36:00;2.20;;;1.70;;
8466;SDS011;4270;48.148;11.648;2023-11-19T02:38:26;3.77;;;2.07;;
8466;SDS011;4270;48.148;11.648;2023-11-19T02:40:51;4.40;;;2.00;;
8466;SDS011;4270;48.148;11.648;2023-11-19T02:43:16;3.80;;;2.20;;
8466;SDS011;4270;48.148;11.648;2023-11-19T02:45:42;2.10;;;1.80;;
8466;SDS011;4270;48.148;11.648;2023-11-19T02:48:10;2.90;;;2.10;;
8466;SDS011;4270;48.148;11.648;2023-11-19T02:50:35;3.30;;;1.87;;
8466;SDS011;4270;48.148;11.648;2023-11-19T02:53:01;2.10;;;1.90;;
8466;SDS011;4270;48.148;11.648;2023-11-19T02:55:27;2.37;;;1.70;;
8466;SDS011;4270;48.148;11.648;2023-11-19T02:57:55;2.30;;;1.80;;
8466;SDS011;4270;48.148;11.648;2023-11-19T03:00:21;2.40;;;1.80;;
8466;SDS011;4270;48.148;11.648;2023-11-19T03:02:57;2.70;;;1.80;;
8466;SDS011;4270;48.148;11.648;2023-11-19T03:05:30;2.63;;;1.93;;
8466;SDS011;4270;48.148;11.648;2023-11-19T03:07:56;3.53;;;1.90;;
8466;SDS011;4270;48.148;11.648;2023-11-19T03:10:22;3.90;;;1.90;;
8466;SDS011;4270;48.148;11.648;2023-11-19T03:12:47;2.13;;;1.93;;
8466;SDS011;4270;48.148;11.648;2023-11-19T03:15:12;4.30;;;1.83;;
8466;SDS011;4270;48.148;11.648;2023-11-19T03:17:41;2.57;;;2.00;;
8466;SDS011;4270;48.148;11.648;2023-11-19T03:20:07;3.10;;;2.03;;
8466;SDS011;4270;48.148;11.648;2023-11-19T03:22:34;3.70;;;2.50;;
8466;SDS011;4270;48.148;11.648;2023-11-19T03:25:00;3.30;;;2.13;;
8466;SDS011;4270;48.148;11.648;2023-11-19T03:27:25;2.20;;;1.80;;
8466;SDS011;4270;48.148;11.648;2023-11-19T03:29:50;6.53;;;2.33;;
8466;SDS011;4270;48.148;11.648;2023-11-19T03:32:15;2.50;;;1.77;;
8466;SDS011;4270;48.148;11.648;2023-11-19T03:34:40;3.00;;;1.63;;
8466;SDS011;4270;48.148;11.648;2023-11-19T03:37:06;3.53;;;1.97;;
8466;SDS011;4270;48.148;11.648;2023-11-19T03:39:31;3.13;;;1.93;;
8466;SDS011;4270;48.148;11.648;2023-11-19T03:41:56;2.80;;;2.00;;
8466;SDS011;4270;48.148;11.648;2023-11-19T03:44:21;2.67;;;2.03;;
8466;SDS011;4270;48.148;11.648;2023-11-19T03:46:47;2.80;;;1.90;;
8466;SDS011;4270;48.148;11.648;2023-11-19T03:49:12;2.63;;;1.70;;
8466;SDS011;4270;48.148;11.648;2023-11-19T03:51:37;2.87;;;1.87;;
8466;SDS011;4270;48.148;11.648;2023-11-19T03:54:02;2.40;;;1.90;;
8466;SDS011;4270;48.148;11.648;2023-11-19T03:56:28;3.43;;;1.73;;
8466;SDS011;4270;48.148;11.648;2023-11-19T03:58:53;3.00;;;1.77;;
8466;SDS011;4270;48.148;11.648;2023-11-19T04:01:19;2.03;;;1.60;;
8466;SDS011;4270;48.148;11.648;2023-11-19T04:03:44;3.23;;;2.43;;
8466;SDS011;4270;48.148;11.648;2023-11-19T04:06:09;2.50;;;2.10;;
8466;SDS011;4270;48.148;11.648;2023-11-19T04:08:34;2.20;;;1.60;;
8466;SDS011;4270;48.148;11.648;2023-11-19T04:11:01;2.63;;;1.80;;
8466;SDS011;4270;48.148;11.648;2023-11-19T04:13:29;3.83;;;1.83;;
8466;SDS011;4270;48.148;11.648;2023-11-19T04:15:55;2.70;;;1.97;;
8466;SDS011;4270;48.148;11.648;2023-11-19T04:18:20;2.30;;;1.70;;
8466;SDS011;4270;48.148;11.648;2023-11-19T04:20:45;2.80;;;2.13;;
8466;SDS011;4270;48.148;11.648;2023-11-19T04:23:10;2.57;;;2.10;;
8466;SDS011;4270;48.148;11.648;2023-11-19T04:25:36;4.03;;;2.07;;
8466;SDS011;4270;48.148;11.648;2023-11-19T04:28:01;2.37;;;1.83;;
8466;SDS011;4270;48.148;11.648;2023-11-19T04:30:27;2.53;;;2.10;;
8466;SDS011;4270;48.148;11.648;2023-11-19T04:32:52;2.97;;;1.90;;
8466;SDS011;4270;48.148;11.648;2023-11-19T04:35:17;3.83;;;2.37;;
8466;SDS011;4270;48.148;11.648;2023-11-19T04:37:44;2.77;;;2.47;;
8466;SDS011;4270;48.148;11.648;2023-11-19T04:40:09;2.70;;;2.03;;
8466;SDS011;4270;48.148;11.648;2023-11-19T04:42:35;3.10;;;2.10;;
8466;SDS011;4270;48.148;11.648;2023-11-19T04:45:00;3.40;;;2.03;;
8466;SDS011;4270;48.148;11.648;2023-11-19T04:47:25;2.90;;;2.00;;
8466;SDS011;4270;48.148;11.648;2023-11-19T04:49:50;3.90;;;2.33;;
8466;SDS011;4270;48.148;11.648;2023-11-19T04:52:15;3.60;;;2.27;;
8466;SDS011;4270;48.148;11.648;2023-11-19T04:54:44;3.37;;;2.20;;
8466;SDS011;4270;48.148;11.648;2023-11-19T04:57:09;5.03;;;2.10;;
8466;SDS011;4270;48.148;11.648;2023-11-19T04:59:36;2.63;;;2.00;;
8466;SDS011;4270;48.148;11.648;2023-11-19T05:02:01;2.90;;;1.70;;
8466;SDS011;4270;48.148;11.648;2023-11-19T05:04:26;3.20;;;1.73;;
8466;SDS011;4270;48.148;11.648;2023-11-19T05:06:51;3.80;;;1.60;;
8466;SDS011;4270;48.148;11.648;2023-11-19T05:09:18;1.47;;;1.07;;
8466;SDS011;4270;48.148;11.648;2023-11-19T05:11:43;2.40;;;1.17;;
8466;SDS011;4270;48.148;11.648;2023-11-19T05:14:08;3.73;;;1.10;;
8466;SDS011;4270;48.148;11.648;2023-11-19T05:16:34;1.73;;;1.00;;
8466;SDS011;4270;48.148;11.648;2023-11-19T05:19:00;1.30;;;0.87;;
8466;SDS011;4270;48.148;11.648;2023-11-19T05:21:25;2.50;;;0.93;;
8466;SDS011;4270;48.148;11.648;2023-11-19T05:23:50;1.67;;;0.90;;
8466;SDS011;4270;48.148;11.648;2023-11-19T05:26:19;1.50;;;1.10;;
8466;SDS011;4270;48.148;11.648;2023-11-19T05:28:45;1.83;;;1.03;;
8466;SDS011;4270;48.148;11.648;2023-11-19T05:31:10;1.60;;;1.10;;
8466;SDS011;4270;48.148;11.648;2023-11-19T05:33:35;1.97;;;1.10;;
8466;SDS011;4270;48.148;11.648;2023-11-19T05:36:01;1.10;;;0.90;;
8466;SDS011;4270;48.148;11.648;2023-11-19T05:38:28;1.93;;;0.90;;
8466;SDS011;4270;48.148;11.648;2023-11-19T05:40:54;1.60;;;0.93;;
8466;SDS011;4270;48.148;11.648;2023-11-19T05:43:19;3.17;;;0.93;;
8466;SDS011;4270;48.148;11.648;2023-11-19T05:45:44;2.13;;;1.23;;
8466;SDS011;4270;48.148;11.648;2023-11-19T05:48:09;1.57;;;1.00;;
8466;SDS011;4270;48.148;11.648;2023-11-19T05:50:35;2.07;;;1.20;;
8466;SDS011;4270;48.148;11.648;2023-11-19T05:53:00;1.87;;;1.07;;
8466;SDS011;4270;48.148;11.648;2023-11-19T05:55:26;1.70;;;0.93;;
8466;SDS011;4270;48.148;11.648;2023-11-19T05:57:53;2.67;;;1.20;;
8466;SDS011;4270;48.148;11.648;2023-11-19T06:00:18;1.60;;;0.90;;
8466;SDS011;4270;48.148;11.648;2023-11-19T06:02:43;1.97;;;1.20;;
8466;SDS011;4270;48.148;11.648;2023-11-19T06:05:08;9.70;;;1.27;;
8466;SDS011;4270;48.148;11.648;2023-11-19T06:07:34;1.30;;;0.90;;
8466;SDS011;4270;48.148;11.648;2023-11-19T06:10:00;3.67;;;1.30;;
8466;SDS011;4270;48.148;11.648;2023-11-19T06:12:26;1.43;;;1.00;;
8466;SDS011;4270;48.148;11.648;2023-11-19T06:14:52;1.57;;;0.97;;
8466;SDS011;4270;48.148;11.648;2023-11-19T06:17:18;3.40;;;1.10;;
8466;SDS011;4270;48.148;11.648;2023-11-19T06:19:43;1.23;;;0.83;;
8466;SDS011;4270;48.148;11.648;2023-11-19T06:22:08;1.80;;;1.10;;
8466;SDS011;4270;48.148;11.648;2023-11-19T06:24:33;1.47;;;1.00;;
8466;SDS011;4270;48.148;11.648;2023-11-19T06:26:58;2.70;;;1.00;;
8466;SDS011;4270;48.148;11.648;2023-11-19T06:29:24;1.60;;;0.80;;
8466;SDS011;4270;48.148;11.648;2023-11-19T06:31:49;1.50;;;1.10;;
8466;SDS011;4270;48.148;11.648;2023-11-19T06:34:15;1.30;;;0.90;;
8466;SDS011;4270;48.148;11.648;2023-11-19T06:36:40;1.43;;;1.10;;
8466;SDS011;4270;48.148;11.648;2023-11-19T06:39:05;2.73;;;1.20;;
8466;SDS011;4270;48.148;11.648;2023-11-19T06:41:31;1.70;;;0.80;;
8466;SDS011;4270;48.148;11.648;2023-11-19T06:43:56;1.33;;;0.80;;
8466;SDS011;4270;48.148;11.648;2023-11-19T06:46:21;1.20;;;0.70;;
8466;SDS011;4270;48.148;11.648;2023-11-19T06:48:46;1.37;;;0.70;;
8466;SDS011;4270;48.148;11.648;2023-11-19T06:51:12;2.00;;;0.90;;
8466;SDS011;4270;48.148;11.648;2023-11-19T06:53:37;1.43;;;0.80;;
8466;SDS011;4270;48.148;11.648;2023-11-19T06:56:04;1.50;;;0.80;;
8466;SDS011;4270;48.148;11.648;2023-11-19T06:58:31;1.00;;;0.67;;
8466;SDS011;4270;48.148;11.648;2023-11-19T07:00:57;1.20;;;0.77;;
8466;SDS011;4270;48.148;11.648;2023-11-19T07:03:22;1.37;;;0.80;;
8466;SDS011;4270;48.148;11.648;2023-11-19T07:05:47;1.30;;;0.90;;
8466;SDS011;4270;48.148;11.648;2023-11-19T07:08:13;1.17;;;0.67;;
8466;SDS011;4270;48.148;11.648;2023-11-19T07:10:38;1.10;;;0.70;;
8466;SDS011;4270;48.148;11.648;2023-11-19T07:13:04;1.13;;;0.80;;
8466;SDS011;4270;48.148;11.648;2023-11-19T07:15:30;1.63;;;0.70;;
8466;SDS011;4270;48.148;11.648;2023-11-19T07:17:56;1.00;;;0.63;;
8466;SDS011;4270;48.148;11.648;2023-11-19T07:20:23;1.33;;;0.60;;
8466;SDS011;4270;48.148;11.648;2023-11-19T07:22:48;0.90;;;0.70;;
8466;SDS011;4270;48.148;11.648;2023-11-19T07:25:13;1.20;;;0.77;;
8466;SDS011;4270;48.148;11.648;2023-11-19T07:27:39;1.00;;;0.60;;
8466;SDS011;4270;48.148;11.648;2023-11-19T07:30:05;1.50;;;0.70;;
8466;SDS011;4270;48.148;11.648;2023-11-19T07:32:32;1.53;;;0.80;;
8466;SDS011;4270;48.148;11.648;2023-11-19T07:34:57;1.73;;;0.90;;
8466;SDS011;4270;48.148;11.648;2023-11-19T07:37:22;1.30;;;0.80;;
8466;SDS011;4270;48.148;11.648;2023-11-19T07:39:48;1.10;;;0.53;;
8466;SDS011;4270;48.148;11.648;2023-11-19T07:42:13;2.23;;;0.87;;
8466;SDS011;4270;48.148;11.648;2023-11-19T07:44:38;1.20;;;0.70;;
8466;SDS011;4270;48.148;11.648;2023-11-19T07:47:03;2.33;;;0.60;;
8466;SDS011;4270;48.148;11.648;2023-11-19T07:49:29;1.43;;;0.70;;
8466;SDS011;4270;48.148;11.648;2023-11-19T07:51:55;1.13;;;0.60;;
8466;SDS011;4270;48.148;11.648;2023-11-19T07:54:21;1.60;;;0.70;;
8466;SDS011;4270;48.148;11.648;2023-11-19T07:56:46;1.63;;;0.60;;
8466;SDS011;4270;48.148;11.648;2023-11-19T07:59:11;1.47;;;0.63;;
8466;SDS011;4270;48.148;11.648;2023-11-19T08:01:37;2.07;;;0.50;;
8466;SDS011;4270;48.148;11.648;2023-11-19T08:04:02;0.90;;;0.50;;
8466;SDS011;4270;48.148;11.648;2023-11-19T08:06:27;1.00;;;0.60;;
8466;SDS011;4270;48.148;11.648;2023-11-19T08:08:52;1.70;;;0.70;;
8466;SDS011;4270;48.148;11.648;2023-11-19T08:11:18;2.20;;;0.67;;
8466;SDS011;4270;48.148;11.648;2023-11-19T08:13:44;1.00;;;0.60;;
8466;SDS011;4270;48.148;11.648;2023-11-19T08:16:10;0.90;;;0.50;;
8466;SDS011;4270;48.148;11.648;2023-11-19T08:18:35;1.40;;;0.80;;
8466;SDS011;4270;48.148;11.648;2023-11-19T08:21:01;1.00;;;0.60;;
8466;SDS011;4270;48.148;11.648;2023-11-19T08:23:26;1.27;;;0.60;;
8466;SDS011;4270;48.148;11.648;2023-11-19T08:25:53;1.30;;;0.60;;
8466;SDS011;4270;48.148;11.648;2023-11-19T08:28:19;1.40;;;1.00;;
8466;SDS011;4270;48.148;11.648;2023-11-19T08:30:44;1.33;;;0.60;;
8466;SDS011;4270;48.148;11.648;2023-11-19T08:33:09;1.00;;;0.50;;
8466;SDS011;4270;48.148;11.648;2023-11-19T08:35:35;1.00;;;0.60;;
8466;SDS011;4270;48.148;11.648;2023-11-19T08:38:00;1.20;;;0.60;;
8466;SDS011;4270;48.148;11.648;2023-11-19T08:40:26;0.87;;;0.50;;
8466;SDS011;4270;48.148;11.648;2023-11-19T08:42:51;2.60;;;0.50;;
8466;SDS011;4270;48.148;11.648;2023-11-19T08:45:16;1.00;;;0.60;;
8466;SDS011;4270;48.148;11.648;2023-11-19T08:47:41;0.80;;;0.50;;
8466;SDS011;4270;48.148;11.648;2023-11-19T08:50:07;3.43;;;0.70;;
8466;SDS011;4270;48.148;11.648;2023-11-19T08:52:33;2.00;;;0.90;;
8466;SDS011;4270;48.148;11.648;2023-11-19T08:54:58;1.30;;;0.63;;
8466;SDS011;4270;48.148;11.648;2023-11-19T08:57:23;1.13;;;0.60;;
8466;SDS011;4270;48.148;11.648;2023-11-19T08:59:49;2.20;;;1.20;;
8466;SDS011;4270;48.148;11.648;2023-11-19T09:02:14;6.37;;;0.90;;
8466;SDS011;4270;48.148;11.648;2023-11-19T09:04:39;2.60;;;0.80;;
8466;SDS011;4270;48.148;11.648;2023-11-19T09:07:05;1.43;;;0.80;;
8466;SDS011;4270;48.148;11.648;2023-11-19T09:09:31;1.80;;;1.37;;
8466;SDS011;4270;48.148;11.648;2023-11-19T09:11:59;1.50;;;1.10;;
8466;SDS011;4270;48.148;11.648;2023-11-19T09:14:24;1.83;;;0.90;;
8466;SDS011;4270;48.148;11.648;2023-11-19T09:16:51;1.20;;;0.60;;
8466;SDS011;4270;48.148;11.648;2023-11-19T09:19:16;1.27;;;0.73;;
8466;SDS011;4270;48.148;11.648;2023-11-19T09:21:42;2.03;;;1.20;;
8466;SDS011;4270;48.148;11.648;2023-11-19T09:24:08;3.13;;;0.90;;
8466;SDS011;4270;48.148;11.648;2023-11-19T09:26:33;4.03;;;1.50;;
8466;SDS011;4270;48.148;11.648;2023-11-19T09:28:59;3.13;;;1.30;;
8466;SDS011;4270;48.148;11.648;2023-11-19T09:31:24;3.63;;;1.60;;
8466;SDS011;4270;48.148;11.648;2023-11-19T09:33:50;4.83;;;2.00;;
8466;SDS011;4270;48.148;11.648;2023-11-19T09:36:15;2.73;;;1.00;;
8466;SDS011;4270;48.148;11.648;2023-11-19T09:38:41;3.10;;;1.23;;
8466;SDS011;4270;48.148;11.648;2023-11-19T09:41:07;1.40;;;1.17;;
8466;SDS011;4270;48.148;11.648;2023-11-19T09:43:37;2.03;;;1.00;;
8466;SDS011;4270;48.148;11.648;2023-11-19T09:46:04;1.57;;;0.90;;
8466;SDS011;4270;48.148;11.648;2023-11-19T09:48:32;2.13;;;1.50;;
8466;SDS011;4270;48.148;11.648;2023-11-19T09:50:58;1.40;;;0.80;;
8466;SDS011;4270;48.148;11.648;2023-11-19T09:53:24;1.30;;;0.80;;
8466;SDS011;4270;48.148;11.648;2023-11-19T09:55:49;1.20;;;0.83;;
8466;SDS011;4270;48.148;11.648;2023-11-19T09:58:15;1.33;;;0.90;;
8466;SDS011;4270;48.148;11.648;2023-11-19T10:00:41;1.60;;;0.90;;
8466;SDS011;4270;48.148;11.648;2023-11-19T10:03:07;2.13;;;1.33;;
8466;SDS011;4270;48.148;11.648;2023-11-19T10:05:34;1.53;;;0.90;;
8466;SDS011;4270;48.148;11.648;2023-11-19T10:08:03;3.90;;;1.03;;
8466;SDS011;4270;48.148;11.648;2023-11-19T10:10:28;1.20;;;0.90;;
8466;SDS011;4270;48.148;11.648;2023-11-19T10:12:53;1.57;;;1.10;;
8466;SDS011;4270;48.148;11.648;2023-11-19T10:15:20;2.93;;;1.00;;
8466;SDS011;4270;48.148;11.648;2023-11-19T10:17:50;1.83;;;0.90;;
8466;SDS011;4270;48.148;11.648;2023-11-19T10:20:15;1.37;;;0.70;;
8466;SDS011;4270;48.148;11.648;2023-11-19T10:22:40;1.87;;;0.70;;
8466;SDS011;4270;48.148;11.648;2023-11-19T10:25:22;2.20;;;0.87;;
8466;SDS011;4270;48.148;11.648;2023-11-19T10:27:48;1.20;;;0.90;;
8466;SDS011;4270;48.148;11.648;2023-11-19T10:30:17;2.60;;;0.80;;
8466;SDS011;4270;48.148;11.648;2023-11-19T10:32:42;2.60;;;0.90;;
8466;SDS011;4270;48.148;11.648;2023-11-19T10:35:07;1.50;;;0.97;;
8466;SDS011;4270;48.148;11.648;2023-11-19T10:37:33;1.60;;;0.80;;
8466;SDS011;4270;48.148;11.648;2023-11-19T10:40:00;1.20;;;0.90;;
8466;SDS011;4270;48.148;11.648;2023-11-19T10:42:25;1.53;;;1.13;;
8466;SDS011;4270;48.148;11.648;2023-11-19T10:44:51;2.47;;;1.57;;
8466;SDS011;4270;48.148;11.648;2023-11-19T10:47:18;1.30;;;0.90;;
8466;SDS011;4270;48.148;11.648;2023-11-19T10:49:44;1.83;;;0.90;;
8466;SDS011;4270;48.148;11.648;2023-11-19T10:52:11;1.20;;;0.73;;
8466;SDS011;4270;48.148;11.648;2023-11-19T10:54:36;2.30;;;0.80;;
8466;SDS011;4270;48.148;11.648;2023-11-19T10:57:02;1.00;;;0.63;;
8466;SDS011;4270;48.148;11.648;2023-11-19T10:59:30;1.20;;;0.80;;
8466;SDS011;4270;48.148;11.648;2023-11-19T11:01:57;1.40;;;0.80;;
8466;SDS011;4270;48.148;11.648;2023-11-19T11:04:23;1.27;;;0.63;;
8466;SDS011;4270;48.148;11.648;2023-11-19T11:06:48;1.03;;;0.60;;
8466;SDS011;4270;48.148;11.648;2023-11-19T11:09:15;1.33;;;0.87;;
8466;SDS011;4270;48.148;11.648;2023-11-19T11:11:43;1.50;;;0.93;;
8466;SDS011;4270;48.148;11.648;2023-11-19T11:14:12;1.50;;;0.70;;
8466;SDS011;4270;48.148;11.648;2023-11-19T11:16:40;1.60;;;0.80;;
8466;SDS011;4270;48.148;11.648;2023-11-19T11:19:07;1.77;;;0.90;;
8466;SDS011;4270;48.148;11.648;2023-11-19T11:21:34;1.50;;;0.97;;
8466;SDS011;4270;48.148;11.648;2023-11-19T11:24:11;1.27;;;0.80;;
8466;SDS011;4270;48.148;11.648;2023-11-19T11:29:31;1.20;;;0.67;;
8466;SDS011;4270;48.148;11.648;2023-11-19T11:39:41;1.33;;;0.90;;
8466;SDS011;4270;48.148;11.648;2023-11-19T11:50:12;1.33;;;0.70;;
8466;SDS011;4270;48.148;11.648;2023-11-19T11:57:50;1.10;;;0.90;;
8466;SDS011;4270;48.148;11.648;2023-11-19T12:00:37;1.10;;;0.63;;
8466;SDS011;4270;48.148;11.648;2023-11-19T12:03:03;1.40;;;0.60;;
8466;SDS011;4270;48.148;11.648;2023-11-19T12:05:29;1.20;;;0.70;;
8466;SDS011;4270;48.148;11.648;2023-11-19T12:07:55;1.63;;;0.63;;
8466;SDS011;4270;48.148;11.648;2023-11-19T12:10:20;1.70;;;0.50;;
8466;SDS011;4270;48.148;11.648;2023-11-19T12:12:47;1.23;;;0.70;;
8466;SDS011;4270;48.148;11.648;2023-11-19T12:15:12;1.70;;;0.83;;
8466;SDS011;4270;48.148;11.648;2023-11-19T12:17:49;1.33;;;0.60;;
8466;SDS011;4270;48.148;11.648;2023-11-19T12:20:14;1.00;;;0.53;;
8466;SDS011;4270;48.148;11.648;2023-11-19T12:22:40;1.57;;;1.03;;
8466;SDS011;4270;48.148;11.648;2023-11-19T12:25:10;1.30;;;0.60;;
8466;SDS011;4270;48.148;11.648;2023-11-19T12:27:36;2.23;;;1.00;;
8466;SDS011;4270;48.148;11.648;2023-11-19T12:30:02;2.77;;;0.87;;
8466;SDS011;4270;48.148;11.648;2023-11-19T12:32:40;4.07;;;1.47;;
8466;SDS011;4270;48.148;11.648;2023-11-19T12:35:05;2.40;;;0.70;;
8466;SDS011;4270;48.148;11.648;2023-11-19T12:37:31;1.00;;;0.43;;
8466;SDS011;4270;48.148;11.648;2023-11-19T12:39:57;1.93;;;0.60;;
8466;SDS011;4270;48.148;11.648;2023-11-19T12:42:34;1.20;;;0.80;;
8466;SDS011;4270;48.148;11.648;2023-11-19T12:44:59;1.97;;;0.70;;
8466;SDS011;4270;48.148;11.648;2023-11-19T12:47:24;1.40;;;0.60;;
8466;SDS011;4270;48.148;11.648;2023-11-19T12:49:56;1.00;;;0.53;;
8466;SDS011;4270;48.148;11.648;2023-11-19T12:52:22;1.43;;;0.60;;
8466;SDS011;4270;48.148;11.648;2023-11-19T12:54:48;3.83;;;1.23;;
8466;SDS011;4270;48.148;11.648;2023-11-19T12:57:13;1.33;;;0.70;;
8466;SDS011;4270;48.148;11.648;2023-11-19T12:59:38;1.23;;;0.70;;
8466;SDS011;4270;48.148;11.648;2023-11-19T13:02:04;1.30;;;0.70;;
8466;SDS011;4270;48.148;11.648;2023-11-19T13:04:30;1.20;;;0.67;;
8466;SDS011;4270;48.148;11.648;2023-11-19T13:06:56;2.00;;;0.60;;
8466;SDS011;4270;48.148;11.648;2023-11-19T13:09:28;1.20;;;0.67;;
8466;SDS011;4270;48.148;11.648;2023-11-19T13:11:54;1.67;;;0.83;;
8466;SDS011;4270;48.148;11.648;2023-11-19T13:14:21;1.10;;;0.73;;
8466;SDS011;4270;48.148;11.648;2023-11-19T13:16:46;1.77;;;0.70;;
8466;SDS011;4270;48.148;11.648;2023-11-19T13:19:12;2.80;;;1.23;;
8466;SDS011;4270;48.148;11.648;2023-11-19T13:21:38;1.33;;;0.67;;
8466;SDS011;4270;48.148;11.648;2023-11-19T13:24:05;1.40;;;0.90;;
8466;SDS011;4270;48.148;11.648;2023-11-19T13:26:30;1.10;;;0.57;;
8466;SDS011;4270;48.148;11.648;2023-11-19T13:28:56;1.30;;;0.70;;
8466;SDS011;4270;48.148;11.648;2023-11-19T13:31:21;1.40;;;0.80;;
8466;SDS011;4270;48.148;11.648;2023-11-19T13:33:47;1.80;;;1.03;;
8466;SDS011;4270;48.148;11.648;2023-11-19T13:36:12;1.50;;;0.90;;
8466;SDS011;4270;48.148;11.648;2023-11-19T13:38:37;2.43;;;0.80;;
8466;SDS011;4270;48.148;11.648;2023-11-19T13:41:03;1.50;;;0.70;;
8466;SDS011;4270;48.148;11.648;2023-11-19T13:43:29;1.80;;;1.20;;
8466;SDS011;4270;48.148;11.648;2023-11-19T13:45:55;3.30;;;0.90;;
8466;SDS011;4270;48.148;11.648;2023-11-19T13:48:20;1.47;;;0.87;;
8466;SDS011;4270;48.148;11.648;2023-11-19T13:50:45;2.40;;;1.00;;
8466;SDS011;4270;48.148;11.648;2023-11-19T13:53:11;2.33;;;1.00;;
8466;SDS011;4270;48.148;11.648;2023-11-19T13:55:36;1.20;;;0.70;;
8466;SDS011;4270;48.148;11.648;2023-11-19T13:58:01;1.30;;;0.63;;
8466;SDS011;4270;48.148;11.648;2023-11-19T14:00:29;1.20;;;0.67;;
8466;SDS011;4270;48.148;11.648;2023-11-19T14:02:55;2.00;;;1.10;;
8466;SDS011;4270;48.148;11.648;2023-11-19T14:05:20;1.73;;;0.90;;
8466;SDS011;4270;48.148;11.648;2023-11-19T14:07:45;1.20;;;0.80;;
8466;SDS011;4270;48.148;11.648;2023-11-19T14:10:14;1.40;;;0.80;;
8466;SDS011;4270;48.148;11.648;2023-11-19T14:12:40;1.50;;;0.80;;
8466;SDS011;4270;48.148;11.648;2023-11-19T14:15:05;1.10;;;0.60;;
8466;SDS011;4270;48.148;11.648;2023-11-19T14:17:31;3.50;;;1.97;;
8466;SDS011;4270;48.148;11.648;2023-11-19T14:19:57;1.10;;;0.60;;
8466;SDS011;4270;48.148;11.648;2023-11-19T14:22:22;4.70;;;1.30;;
8466;SDS011;4270;48.148;11.648;2023-11-19T14:24:47;2.23;;;1.20;;
8466;SDS011;4270;48.148;11.648;2023-11-19T14:27:12;1.60;;;0.70;;
8466;SDS011;4270;48.148;11.648;2023-11-19T14:29:38;1.43;;;1.00;;
8466;SDS011;4270;48.148;11.648;2023-11-19T14:32:04;1.67;;;0.80;;
8466;SDS011;4270;48.148;11.648;2023-11-19T14:34:32;2.27;;;1.17;;
8466;SDS011;4270;48.148;11.648;2023-11-19T14:36:57;1.80;;;0.80;;
8466;SDS011;4270;48.148;11.648;2023-11-19T14:39:23;1.00;;;0.67;;
8466;SDS011;4270;48.148;11.648;2023-11-19T14:41:48;1.47;;;0.80;;
8466;SDS011;4270;48.148;11.648;2023-11-19T14:44:14;1.40;;;0.77;;
8466;SDS011;4270;48.148;11.648;2023-11-19T14:46:39;1.20;;;0.80;;
8466;SDS011;4270;48.148;11.648;2023-11-19T14:49:05;1.67;;;0.70;;
8466;SDS011;4270;48.148;11.648;2023-11-19T14:51:30;1.57;;;1.10;;
8466;SDS011;4270;48.148;11.648;2023-11-19T14:53:56;1.97;;;1.30;;
8466;SDS011;4270;48.148;11.648;2023-11-19T14:56:21;1.50;;;0.87;;
8466;SDS011;4270;48.148;11.648;2023-11-19T14:58:46;2.40;;;1.00;;
8466;SDS011;4270;48.148;11.648;2023-11-19T15:01:12;1.87;;;0.90;;
8466;SDS011;4270;48.148;11.648;2023-11-19T15:03:37;2.63;;;1.00;;
8466;SDS011;4270;48.148;11.648;2023-11-19T15:06:02;1.57;;;0.87;;
8466;SDS011;4270;48.148;11.648;2023-11-19T15:08:28;1.37;;;0.83;;
8466;SDS011;4270;48.148;11.648;2023-11-19T15:10:53;1.80;;;0.93;;
8466;SDS011;4270;48.148;11.648;2023-11-19T15:13:18;3.03;;;1.30;;
8466;SDS011;4270;48.148;11.648;2023-11-19T15:15:44;1.50;;;1.13;;
8466;SDS011;4270;48.148;11.648;2023-11-19T15:18:09;1.90;;;1.10;;